Time;durP1;ratioP1;P1;durP2;ratioP2;P2;SDS_P1;SDS_P2;PMS_P1;PMS_P2;Temp;Humidity;BMP_temperature;BMP_pressure;BME280_temperature;BME280_humidity;BME280_pressure;Samples;Min_cycle;Max_cycle;Signal;HPM_P1;HPM_P2
2022/02/14 00:01:48;;;;;;;;;;;;;;;;;;5041217;28;19960;-70
2022/02/14 00:04:15;;;;;;;;;;;;;;;;;;5041006;28;19987;-69
2022/02/14 00:06:41;;;;;;;;;;;;;;;;;;5038682;28;20004;-69
2022/02/14 00:09:07;;;;;;;;;;;;;;;;;;5042586;28;19974;-70
2022/02/14 00:11:33;;;;;;;;;;;;;;;;;;5009267;28;19963;-70
2022/02/14 00:13:59;;;;;;;;;;;;;;;;;;5041899;28;20373;-71
2022/02/14 00:16:25;;;;;;;;;;;;;;;;;;5037113;28;19952;-70
2022/02/14 00:18:52;;;;;;;;;;;;;;;;;;5038280;28;19948;-70
2022/02/14 00:21:18;;;;;;;;;;;;;;;;;;5040181;28;19952;-70
2022/02/14 00:23:44;;;;;;;;;;;;;;;;;;5043074;28;19928;-70
2022/02/14 00:26:10;;;;;;;;;;;;;;;;;;5043742;28;19956;-69
2022/02/14 00:28:36;;;;;;;;;;;;;;;;;;5038496;28;19972;-69
2022/02/14 00:31:03;;;;;;;;;;;;;;;;;;5039911;28;19952;-69
2022/02/14 00:33:29;;;;;;;;;;;;;;;;;;5042993;28;19964;-70
2022/02/14 00:35:55;;;;;;;;;;;;;;;;;;5043174;28;19949;-69
2022/02/14 00:38:21;;;;;;;;;;;;;;;;;;5034890;28;19956;-69
2022/02/14 00:40:47;;;;;;;;;;;;;;;;;;5038416;28;19964;-69
2022/02/14 00:43:14;;;;;;;;;;;;;;;;;;5039934;28;20025;-69
2022/02/14 00:45:40;;;;;;;;;;;;;;;;;;5018475;28;19956;-70
2022/02/14 00:48:06;;;;;;;;;;;;;;;;;;5041217;28;19956;-70
2022/02/14 00:50:33;;;;;;;;;;;;;;;;;;5043402;28;19964;-69
2022/02/14 00:52:59;;;;;;;;;;;;;;;;;;5044606;28;19978;-69
2022/02/14 00:55:25;;;;;;;;;;;;;;;;;;5042951;28;21287;-69
2022/02/14 00:57:51;;;;;;;;;;;;;;;;;;5042895;28;19960;-69
2022/02/14 01:00:18;;;;;;;;;;;;;;;;;;5038712;28;19983;-70
2022/02/14 01:02:44;;;;;;;;;;;;;;;;;;5040676;28;19955;-70
2022/02/14 01:05:10;;;;;;;;;;;;;;;;;;5038669;28;19960;-70
2022/02/14 01:07:36;;;;;;;;;;;;;;;;;;5039222;28;19956;-70
2022/02/14 01:10:02;;;;;;;;;;;;;;;;;;5040294;28;20444;-70
2022/02/14 01:12:29;;;;;;;;;;;;;;;;;;5045264;28;19967;-70
2022/02/14 01:14:55;;;;;;;;;;;;;;;;;;5040489;28;20266;-69
2022/02/14 01:17:21;;;;;;;;;;;;;;;;;;5042599;28;20454;-70
2022/02/14 01:19:47;;;;;;;;;;;;;;;;;;5044979;28;19964;-69
2022/02/14 01:22:13;;;;;;;;;;;;;;;;;;5042334;28;20365;-70
2022/02/14 01:24:40;;;;;;;;;;;;;;;;;;5042638;28;19971;-70
2022/02/14 01:27:06;;;;;;;;;;;;;;;;;;5043901;28;19948;-70
2022/02/14 01:29:32;;;;;;;;;;;;;;;;;;5040964;28;19927;-70
2022/02/14 01:31:58;;;;;;;;;;;;;;;;;;5044259;28;20376;-70
2022/02/14 01:34:24;;;;;;;;;;;;;;;;;;5038597;28;20015;-70
2022/02/14 01:36:50;;;;;;;;;;;;;;;;;;5021842;28;19964;-69
2022/02/14 01:39:17;;;;;;;;;;;;;;;;;;5038070;28;19972;-69
2022/02/14 01:41:43;;;;;;;;;;;;;;;;;;5026779;28;19971;-70
2022/02/14 01:44:10;;;;;;;;;;;;;;;;;;5041051;28;19929;-71
2022/02/14 01:46:36;;;;;;;;;;;;;;;;;;5040046;28;19964;-70
2022/02/14 01:49:03;;;;;;;;;;;;;;;;;;5041494;28;20479;-71
2022/02/14 01:51:29;;;;;;;;;;;;;;;;;;5036546;28;19963;-69
2022/02/14 01:53:55;;;;;;;;;;;;;;;;;;5038624;28;20384;-70
2022/02/14 01:56:21;;;;;;;;;;;;;;;;;;5037624;28;19997;-70
2022/02/14 01:58:48;;;;;;;;;;;;;;;;;;5025594;28;19968;-69
2022/02/14 02:01:14;;;;;;;;;;;;;;;;;;5040417;28;19952;-70
2022/02/14 02:03:40;;;;;;;;;;;;;;;;;;5019370;28;19966;-70
2022/02/14 02:06:06;;;;;;;;;;;;;;;;;;5036338;28;20492;-70
2022/02/14 02:08:32;;;;;;;;;;;;;;;;;;5037972;28;19921;-70
2022/02/14 02:12:22;;;;;;;;;;;;;;;;;;5041954;28;19956;-70
2022/02/14 02:13:45;;;;;;;;;;;;;;;;;;5039347;28;21297;-70
2022/02/14 02:16:11;;;;;;;;;;;;;;;;;;5022614;28;19948;-70
2022/02/14 02:18:37;;;;;;;;;;;;;;;;;;5040885;28;19944;-70
2022/02/14 02:21:03;;;;;;;;;;;;;;;;;;5038744;28;19972;-70
2022/02/14 02:23:29;;;;;;;;;;;;;;;;;;5023753;28;19961;-70
2022/02/14 02:25:56;;;;;;;;;;;;;;;;;;5039836;28;20380;-70
2022/02/14 02:28:22;;;;;;;;;;;;;;;;;;5036518;28;20006;-70
2022/02/14 02:30:48;;;;;;;;;;;;;;;;;;5045681;28;19964;-70
2022/02/14 02:33:14;;;;;;;;;;;;;;;;;;5044444;28;19956;-70
2022/02/14 02:35:40;;;;;;;;;;;;;;;;;;5049169;28;19999;-70
2022/02/14 02:38:06;;;;;;;;;;;;;;;;;;5044628;28;19948;-71
2022/02/14 02:40:33;;;;;;;;;;;;;;;;;;5041887;28;19979;-70
2022/02/14 02:43:00;;;;;;;;;;;;;;;;;;5046660;28;19945;-70
2022/02/14 02:45:26;;;;;;;;;;;;;;;;;;5043123;28;22293;-70
2022/02/14 02:47:53;;;;;;;;;;;;;;;;;;5042964;28;19956;-69
2022/02/14 02:50:19;;;;;;;;;;;;;;;;;;5045011;28;19949;-70
2022/02/14 02:52:46;;;;;;;;;;;;;;;;;;5044274;28;20836;-69
2022/02/14 02:55:12;;;;;;;;;;;;;;;;;;5041541;28;19979;-69
2022/02/14 02:57:38;;;;;;;;;;;;;;;;;;5046823;28;19960;-69
2022/02/14 03:00:04;;;;;;;;;;;;;;;;;;5043438;28;20363;-70
2022/02/14 03:02:30;;;;;;;;;;;;;;;;;;5045998;28;19952;-70
2022/02/14 03:04:57;;;;;;;;;;;;;;;;;;5045162;28;19929;-69
2022/02/14 03:07:23;;;;;;;;;;;;;;;;;;5044058;28;19956;-70
2022/02/14 03:09:49;;;;;;;;;;;;;;;;;;5040134;28;19948;-70
2022/02/14 03:12:15;;;;;;;;;;;;;;;;;;5045995;28;19959;-70
2022/02/14 03:14:41;;;;;;;;;;;;;;;;;;5043440;28;20022;-70
2022/02/14 03:17:08;;;;;;;;;;;;;;;;;;5041755;28;19960;-70
2022/02/14 03:19:34;;;;;;;;;;;;;;;;;;5044517;28;20392;-70
2022/02/14 03:22:03;;;;;;;;;;;;;;;;;;5046181;28;19960;-71
2022/02/14 03:24:29;;;;;;;;;;;;;;;;;;5042391;28;19991;-69
2022/02/14 03:26:55;;;;;;;;;;;;;;;;;;5044204;28;19963;-69
2022/02/14 03:29:21;;;;;;;;;;;;;;;;;;5041622;28;20638;-69
2022/02/14 03:31:47;;;;;;;;;;;;;;;;;;5047084;28;20059;-70
2022/02/14 03:34:13;;;;;;;;;;;;;;;;;;5040361;28;20333;-69
2022/02/14 03:36:41;;;;;;;;;;;;;;;;;;5041664;28;19952;-69
2022/02/14 03:39:07;;;;;;;;;;;;;;;;;;5038935;28;19953;-69
2022/02/14 03:41:33;;;;;;;;;;;;;;;;;;5042056;28;19960;-69
2022/02/14 03:43:59;;;;;;;;;;;;;;;;;;5038651;28;19964;-69
2022/02/14 03:46:26;;;;;;;;;;;;;;;;;;5037619;28;20148;-68
2022/02/14 03:48:52;;;;;;;;;;;;;;;;;;5040069;28;19965;-69
2022/02/14 03:51:18;;;;;;;;;;;;;;;;;;5044130;28;19956;-69
2022/02/14 03:53:44;;;;;;;;;;;;;;;;;;5044097;28;20535;-69
2022/02/14 03:56:10;;;;;;;;;;;;;;;;;;5042935;28;19967;-68
2022/02/14 03:58:37;;;;;;;;;;;;;;;;;;5039712;28;19975;-68
2022/02/14 04:01:03;;;;;;;;;;;;;;;;;;5025430;28;19956;-69
2022/02/14 04:03:29;;;;;;;;;;;;;;;;;;5040439;28;20457;-69
2022/02/14 04:05:55;;;;;;;;;;;;;;;;;;5045663;28;19952;-69
2022/02/14 04:08:21;;;;;;;;;;;;;;;;;;5040637;28;20486;-69
2022/02/14 04:10:48;;;;;;;;;;;;;;;;;;5041004;28;19960;-69
2022/02/14 04:13:14;;;;;;;;;;;;;;;;;;5038647;28;19967;-69
2022/02/14 04:15:40;;;;;;;;;;;;;;;;;;5046040;28;19948;-69
2022/02/14 04:18:06;;;;;;;;;;;;;;;;;;5023297;28;19985;-69
2022/02/14 04:20:33;;;;;;;;;;;;;;;;;;5041139;28;19928;-71
2022/02/14 04:23:02;;;;;;;;;;;;;;;;;;5042774;28;20395;-71
2022/02/14 04:25:33;;;;;;;;;;;;;;;;;;5044575;28;20311;-71
2022/02/14 04:27:59;;;;;;;;;;;;;;;;;;5039188;28;19987;-72
2022/02/14 04:30:29;;;;;;;;;;;;;;;;;;5042117;28;20549;-71
2022/02/14 04:32:56;;;;;;;;;;;;;;;;;;5039394;28;19969;-72
2022/02/14 04:35:23;;;;;;;;;;;;;;;;;;5036338;28;19921;-72
2022/02/14 04:37:49;;;;;;;;;;;;;;;;;;5035295;28;19917;-71
2022/02/14 04:40:15;;;;;;;;;;;;;;;;;;5038574;28;20344;-71
2022/02/14 04:42:41;;;;;;;;;;;;;;;;;;5038343;28;19948;-71
2022/02/14 04:45:07;;;;;;;;;;;;;;;;;;5021627;28;19967;-71
2022/02/14 04:47:34;;;;;;;;;;;;;;;;;;5043994;28;20416;-71
2022/02/14 04:50:00;;;;;;;;;;;;;;;;;;5028888;28;19944;-72
2022/02/14 04:52:26;;;;;;;;;;;;;;;;;;5045268;28;20612;-70
2022/02/14 04:54:52;;;;;;;;;;;;;;;;;;5043176;28;20448;-70
2022/02/14 04:57:18;;;;;;;;;;;;;;;;;;5035593;28;20014;-70
2022/02/14 04:59:44;;;;;;;;;;;;;;;;;;5040283;28;20410;-70
2022/02/14 05:02:11;;;;;;;;;;;;;;;;;;5034903;28;20037;-71
2022/02/14 05:04:37;;;;;;;;;;;;;;;;;;5038693;28;19968;-71
2022/02/14 05:07:03;;;;;;;;;;;;;;;;;;5037578;28;19952;-71
2022/02/14 05:09:29;;;;;;;;;;;;;;;;;;5042124;28;19952;-72
2022/02/14 05:11:55;;;;;;;;;;;;;;;;;;5039668;28;19948;-71
2022/02/14 05:14:22;;;;;;;;;;;;;;;;;;5038109;28;19956;-71
2022/02/14 05:16:48;;;;;;;;;;;;;;;;;;5024219;28;19952;-71
2022/02/14 05:19:14;;;;;;;;;;;;;;;;;;5036097;28;19962;-71
2022/02/14 05:21:40;;;;;;;;;;;;;;;;;;5038779;28;19959;-71
2022/02/14 05:24:07;;;;;;;;;;;;;;;;;;5040896;28;19983;-70
2022/02/14 05:26:33;;;;;;;;;;;;;;;;;;5048350;28;19959;-70
2022/02/14 05:28:59;;;;;;;;;;;;;;;;;;5041451;28;19929;-71
2022/02/14 05:31:29;;;;;;;;;;;;;;;;;;5032467;28;19959;-70
2022/02/14 05:33:55;;;;;;;;;;;;;;;;;;5042073;28;20002;-70
2022/02/14 05:36:22;;;;;;;;;;;;;;;;;;5043388;28;20086;-70
2022/02/14 05:38:48;;;;;;;;;;;;;;;;;;5041676;28;19959;-70
2022/02/14 05:41:14;;;;;;;;;;;;;;;;;;5037677;28;20010;-71
2022/02/14 05:43:40;;;;;;;;;;;;;;;;;;5038167;28;19945;-72
2022/02/14 05:46:13;;;;;;;;;;;;;;;;;;5004717;28;19956;-71
2022/02/14 05:48:39;;;;;;;;;;;;;;;;;;5040396;28;20029;-71
2022/02/14 05:51:05;;;;;;;;;;;;;;;;;;5039449;28;19948;-71
2022/02/14 05:53:32;;;;;;;;;;;;;;;;;;5039411;28;20377;-72
2022/02/14 05:55:58;;;;;;;;;;;;;;;;;;5039455;28;20004;-73
2022/02/14 05:58:24;;;;;;;;;;;;;;;;;;5037932;28;19957;-72
2022/02/14 06:00:50;;;;;;;;;;;;;;;;;;5037012;28;19952;-72
2022/02/14 06:03:16;;;;;;;;;;;;;;;;;;5021883;28;20424;-72
2022/02/14 06:05:42;;;;;;;;;;;;;;;;;;5045694;28;19960;-70
2022/02/14 06:08:09;;;;;;;;;;;;;;;;;;5044048;28;19979;-71
2022/02/14 06:10:35;;;;;;;;;;;;;;;;;;5043845;28;19917;-71
2022/02/14 06:13:01;;;;;;;;;;;;;;;;;;5042131;28;20438;-71
2022/02/14 06:15:28;;;;;;;;;;;;;;;;;;5043491;28;20025;-71
2022/02/14 06:17:54;;;;;;;;;;;;;;;;;;5040965;28;19983;-72
2022/02/14 06:20:20;;;;;;;;;;;;;;;;;;5037129;28;20552;-71
2022/02/14 06:22:47;;;;;;;;;;;;;;;;;;5042021;28;19952;-71
2022/02/14 06:25:13;;;;;;;;;;;;;;;;;;5036196;28;19988;-71
2022/02/14 06:27:39;;;;;;;;;;;;;;;;;;5047883;28;19971;-72
2022/02/14 06:30:05;;;;;;;;;;;;;;;;;;5043503;28;19948;-72
2022/02/14 06:32:32;;;;;;;;;;;;;;;;;;5044813;28;19943;-71
2022/02/14 06:34:58;;;;;;;;;;;;;;;;;;5046047;28;19944;-71
2022/02/14 06:37:24;;;;;;;;;;;;;;;;;;5037027;28;19966;-71
2022/02/14 06:39:50;;;;;;;;;;;;;;;;;;5044821;28;19970;-71
2022/02/14 06:42:17;;;;;;;;;;;;;;;;;;5038496;28;19953;-71
2022/02/14 06:44:43;;;;;;;;;;;;;;;;;;5042056;28;20465;-71
2022/02/14 06:47:09;;;;;;;;;;;;;;;;;;5043894;28;20135;-71
2022/02/14 06:49:35;;;;;;;;;;;;;;;;;;5041265;28;19963;-71
2022/02/14 06:52:01;;;;;;;;;;;;;;;;;;5041308;28;19982;-71
2022/02/14 06:54:28;;;;;;;;;;;;;;;;;;5044014;28;19987;-71
2022/02/14 06:56:54;;;;;;;;;;;;;;;;;;5048547;28;20313;-70
2022/02/14 06:59:20;;;;;;;;;;;;;;;;;;5038521;28;19964;-71
2022/02/14 07:01:46;;;;;;;;;;;;;;;;;;5038664;28;19964;-72
2022/02/14 07:04:12;;;;;;;;;;;;;;;;;;5039125;28;19925;-72
2022/02/14 07:06:39;;;;;;;;;;;;;;;;;;5046466;28;19953;-72
2022/02/14 07:09:05;;;;;;;;;;;;;;;;;;5039136;28;20514;-72
2022/02/14 07:11:31;;;;;;;;;;;;;;;;;;5039781;28;19971;-72
2022/02/14 07:13:57;;;;;;;;;;;;;;;;;;5043226;28;19967;-75
2022/02/14 07:16:24;;;;;;;;;;;;;;;;;;5035854;28;19960;-72
2022/02/14 07:18:50;;;;;;;;;;;;;;;;;;5023430;28;19960;-71
2022/02/14 07:21:17;;;;;;;;;;;;;;;;;;5025430;28;19976;-71
2022/02/14 07:23:43;;;;;;;;;;;;;;;;;;5048233;28;19998;-72
2022/02/14 07:26:09;;;;;;;;;;;;;;;;;;5043206;28;20393;-72
2022/02/14 07:28:35;;;;;;;;;;;;;;;;;;5026138;28;20362;-72
2022/02/14 07:31:02;;;;;;;;;;;;;;;;;;5041062;28;19956;-72
2022/02/14 07:33:31;;;;;;;;;;;;;;;;;;5045017;28;20400;-72
2022/02/14 07:35:57;;;;;;;;;;;;;;;;;;5045912;28;20031;-72
2022/02/14 07:38:23;;;;;;;;;;;;;;;;;;5043720;28;20333;-72
2022/02/14 07:40:49;;;;;;;;;;;;;;;;;;5042120;28;20034;-70
2022/02/14 07:43:15;;;;;;;;;;;;;;;;;;5027683;28;20376;-71
2022/02/14 07:45:42;;;;;;;;;;;;;;;;;;5045927;28;19933;-71
2022/02/14 07:48:09;;;;;;;;;;;;;;;;;;5038185;28;19952;-71
2022/02/14 07:50:35;;;;;;;;;;;;;;;;;;5042691;28;19952;-71
2022/02/14 07:53:02;;;;;;;;;;;;;;;;;;5049780;28;19963;-72
2022/02/14 07:55:28;;;;;;;;;;;;;;;;;;5044416;28;19963;-71
2022/02/14 07:57:54;;;;;;;;;;;;;;;;;;5043636;28;19960;-71
2022/02/14 08:00:22;;;;;;;;;;;;;;;;;;5042594;28;19963;-71
2022/02/14 08:02:48;;;;;;;;;;;;;;;;;;5045130;28;20321;-71
2022/02/14 08:05:14;;;;;;;;;;;;;;;;;;5039791;28;19987;-71
2022/02/14 08:07:41;;;;;;;;;;;;;;;;;;5041512;28;19948;-71
2022/02/14 08:10:07;;;;;;;;;;;;;;;;;;5042709;28;19956;-71
2022/02/14 08:12:34;;;;;;;;;;;;;;;;;;5045577;28;19956;-71
2022/02/14 08:15:00;;;;;;;;;;;;;;;;;;5041002;28;19956;-71
2022/02/14 08:17:27;;;;;;;;;;;;;;;;;;5043123;28;21260;-71
2022/02/14 08:19:53;;;;;;;;;;;;;;;;;;5042655;28;20017;-71
2022/02/14 08:22:19;;;;;;;;;;;;;;;;;;5038989;28;19963;-71
2022/02/14 08:24:45;;;;;;;;;;;;;;;;;;5036542;28;19925;-70
2022/02/14 08:27:12;;;;;;;;;;;;;;;;;;5038424;28;20380;-71
2022/02/14 08:29:39;;;;;;;;;;;;;;;;;;5045044;28;20040;-73
2022/02/14 08:32:06;;;;;;;;;;;;;;;;;;5042069;28;19959;-73
2022/02/14 08:34:32;;;;;;;;;;;;;;;;;;5022281;28;19971;-71
2022/02/14 08:36:58;;;;;;;;;;;;;;;;;;5043720;28;19956;-71
2022/02/14 08:39:24;;;;;;;;;;;;;;;;;;5037340;28;19959;-71
2022/02/14 08:41:51;;;;;;;;;;;;;;;;;;5026889;28;20529;-71
2022/02/14 08:44:17;;;;;;;;;;;;;;;;;;5036305;28;19971;-71
2022/02/14 08:46:43;;;;;;;;;;;;;;;;;;5040105;28;19961;-72
2022/02/14 08:49:09;;;;;;;;;;;;;;;;;;5045058;28;19952;-72
2022/02/14 08:51:35;;;;;;;;;;;;;;;;;;5039649;28;19948;-73
2022/02/14 08:54:02;;;;;;;;;;;;;;;;;;5040934;28;19952;-72
2022/02/14 08:56:28;;;;;;;;;;;;;;;;;;5036703;28;20346;-73
2022/02/14 08:58:54;;;;;;;;;;;;;;;;;;5042056;28;19949;-73
2022/02/14 09:01:20;;;;;;;;;;;;;;;;;;5031233;28;20452;-72
2022/02/14 09:03:46;;;;;;;;;;;;;;;;;;5024961;28;20451;-73
2022/02/14 09:06:13;;;;;;;;;;;;;;;;;;5040870;28;19972;-72
2022/02/14 09:08:39;;;;;;;;;;;;;;;;;;5042955;28;19968;-73
2022/02/14 09:11:05;;;;;;;;;;;;;;;;;;5040127;28;19952;-73
2022/02/14 09:13:32;;;;;;;;;;;;;;;;;;5037151;28;19945;-73
2022/02/14 09:15:58;;;;;;;;;;;;;;;;;;5043992;28;19945;-72
2022/02/14 09:18:24;;;;;;;;;;;;;;;;;;5041785;28;19945;-72
2022/02/14 09:20:50;;;;;;;;;;;;;;;;;;5039054;28;19964;-74
2022/02/14 09:23:19;;;;;;;;;;;;;;;;;;5031597;28;20455;-73
2022/02/14 09:25:45;;;;;;;;;;;;;;;;;;5041727;28;20007;-73
2022/02/14 09:28:12;;;;;;;;;;;;;;;;;;5040619;28;19952;-73
2022/02/14 09:30:39;;;;;;;;;;;;;;;;;;5040042;28;19956;-73
2022/02/14 09:33:05;;;;;;;;;;;;;;;;;;5039505;28;19944;-72
2022/02/14 09:35:31;;;;;;;;;;;;;;;;;;5044047;28;19959;-72
2022/02/14 09:37:57;;;;;;;;;;;;;;;;;;5045822;28;19960;-72
2022/02/14 09:40:23;;;;;;;;;;;;;;;;;;5049793;28;19960;-73
2022/02/14 09:42:50;;;;;;;;;;;;;;;;;;5046607;28;19944;-73
2022/02/14 09:45:16;;;;;;;;;;;;;;;;;;5044762;28;20712;-74
2022/02/14 09:47:42;;;;;;;;;;;;;;;;;;5049887;28;19964;-74
2022/02/14 09:50:08;;;;;;;;;;;;;;;;;;5048940;28;19948;-74
2022/02/14 09:52:35;;;;;;;;;;;;;;;;;;5024717;28;19982;-73
2022/02/14 09:55:01;;;;;;;;;;;;;;;;;;5041401;28;19952;-74
2022/02/14 09:57:27;;;;;;;;;;;;;;;;;;5049475;28;21294;-75
2022/02/14 09:59:54;;;;;;;;;;;;;;;;;;5048376;28;20015;-76
2022/02/14 10:02:20;;;;;;;;;;;;;;;;;;5049045;28;19948;-75
2022/02/14 10:04:47;;;;;;;;;;;;;;;;;;5029120;28;19952;-76
2022/02/14 10:07:13;;;;;;;;;;;;;;;;;;5045729;28;20044;-75
2022/02/14 10:09:39;;;;;;;;;;;;;;;;;;5042568;28;19952;-75
2022/02/14 10:12:05;;;;;;;;;;;;;;;;;;5049713;28;19963;-75
2022/02/14 10:14:32;;;;;;;;;;;;;;;;;;5047390;28;19952;-75
2022/02/14 10:16:59;;;;;;;;;;;;;;;;;;5050007;28;19960;-75
2022/02/14 10:19:25;;;;;;;;;;;;;;;;;;5050536;28;19947;-75
2022/02/14 10:21:51;;;;;;;;;;;;;;;;;;5049468;28;19960;-75
2022/02/14 10:24:18;;;;;;;;;;;;;;;;;;5048393;28;20353;-75
2022/02/14 10:26:45;;;;;;;;;;;;;;;;;;5048273;28;20337;-75
2022/02/14 10:29:11;;;;;;;;;;;;;;;;;;5047146;28;19967;-75
2022/02/14 10:31:38;;;;;;;;;;;;;;;;;;5046352;28;20490;-75
2022/02/14 10:34:04;;;;;;;;;;;;;;;;;;5044748;28;19972;-74
2022/02/14 10:36:31;;;;;;;;;;;;;;;;;;5031892;28;19972;-75
2022/02/14 10:38:57;;;;;;;;;;;;;;;;;;5054808;28;19960;-75
2022/02/14 10:41:23;;;;;;;;;;;;;;;;;;5046154;28;19956;-75
2022/02/14 10:43:49;;;;;;;;;;;;;;;;;;5046651;28;20414;-77
2022/02/14 10:46:15;;;;;;;;;;;;;;;;;;5045978;28;20012;-76
2022/02/14 10:48:43;;;;;;;;;;;;;;;;;;5048075;28;19952;-76
2022/02/14 10:51:09;;;;;;;;;;;;;;;;;;5043968;28;19952;-75
2022/02/14 10:53:35;;;;;;;;;;;;;;;;;;5046805;28;19941;-76
2022/02/14 10:56:01;;;;;;;;;;;;;;;;;;5050357;28;19913;-76
2022/02/14 10:58:28;;;;;;;;;;;;;;;;;;5041159;28;20482;-76
2022/02/14 11:00:57;;;;;;;;;;;;;;;;;;5048179;28;19952;-76
2022/02/14 11:03:23;;;;;;;;;;;;;;;;;;5045478;28;19956;-76
2022/02/14 11:05:49;;;;;;;;;;;;;;;;;;5046105;28;19979;-75
2022/02/14 11:08:16;;;;;;;;;;;;;;;;;;5040921;28;20002;-75
2022/02/14 11:10:42;;;;;;;;;;;;;;;;;;5046865;28;20597;-75
2022/02/14 11:13:08;;;;;;;;;;;;;;;;;;5044055;28;19952;-75
2022/02/14 11:15:35;;;;;;;;;;;;;;;;;;5029949;28;20372;-76
2022/02/14 11:18:01;;;;;;;;;;;;;;;;;;5043820;28;20034;-76
2022/02/14 11:20:28;;;;;;;;;;;;;;;;;;5023951;28;19982;-76
2022/02/14 11:22:54;;;;;;;;;;;;;;;;;;5039778;28;19956;-75
2022/02/14 11:25:20;;;;;;;;;;;;;;;;;;5038814;28;20521;-75
2022/02/14 11:27:47;;;;;;;;;;;;;;;;;;5039660;28;19961;-76
2022/02/14 11:30:17;;;;;;;;;;;;;;;;;;5036506;28;19960;-75
2022/02/14 11:32:43;;;;;;;;;;;;;;;;;;5036736;28;19968;-76
2022/02/14 11:35:17;;;;;;;;;;;;;;;;;;5044867;28;20262;-75
2022/02/14 11:37:43;;;;;;;;;;;;;;;;;;5040704;28;20373;-76
2022/02/14 11:40:09;;;;;;;;;;;;;;;;;;5039189;28;19951;-76
2022/02/14 11:42:35;;;;;;;;;;;;;;;;;;5040880;28;19967;-76
2022/02/14 11:45:01;;;;;;;;;;;;;;;;;;5044822;28;20042;-76
2022/02/14 11:47:27;;;;;;;;;;;;;;;;;;5044331;28;20539;-76
2022/02/14 11:49:57;;;;;;;;;;;;;;;;;;5045777;28;20352;-77
2022/02/14 11:52:23;;;;;;;;;;;;;;;;;;5044654;28;19948;-77
2022/02/14 11:54:49;;;;;;;;;;;;;;;;;;5043419;28;19964;-77
2022/02/14 11:57:16;;;;;;;;;;;;;;;;;;5046316;28;20033;-77
2022/02/14 11:59:42;;;;;;;;;;;;;;;;;;5048401;28;19963;-78
2022/02/14 12:02:08;;;;;;;;;;;;;;;;;;5043939;28;20384;-76
2022/02/14 12:04:38;;;;;;;;;;;;;;;;;;5045147;28;19956;-78
2022/02/14 12:07:04;;;;;;;;;;;;;;;;;;5041381;28;19965;-77
2022/02/14 12:09:30;;;;;;;;;;;;;;;;;;5034732;28;20520;-77
2022/02/14 12:11:56;;;;;;;;;;;;;;;;;;5039455;28;19984;-77
2022/02/14 12:14:26;;;;;;;;;;;;;;;;;;5040762;28;20051;-77
2022/02/14 12:22:22;;;;;;;;;;;;;;;;;;5038353;28;20412;-76
2022/02/14 12:24:48;;;;;;;;;;;;;;;;;;5042543;28;19960;-76
2022/02/14 12:27:14;;;;;;;;;;;;;;;;;;5040857;28;20434;-76
2022/02/14 12:29:40;;;;;;;;;;;;;;;;;;5041615;28;20017;-77
2022/02/14 12:32:06;;;;;;;;;;;;;;;;;;5049706;28;19948;-77
2022/02/14 12:34:37;;;;;;;;;;;;;;;;;;5045593;28;19971;-77
2022/02/14 12:37:03;;;;;;;;;;;;;;;;;;5046923;28;19959;-74
2022/02/14 12:39:29;;;;;;;;;;;;;;;;;;5044183;28;19959;-78
2022/02/14 12:41:55;;;;;;;;;;;;;;;;;;5043337;28;19939;-78
2022/02/14 12:44:22;;;;;;;;;;;;;;;;;;5037475;28;19971;-78
2022/02/14 12:46:48;;;;;;;;;;;;;;;;;;5048057;28;19948;-77
2022/02/14 12:49:14;;;;;;;;;;;;;;;;;;5048731;28;19958;-77
2022/02/14 12:51:40;;;;;;;;;;;;;;;;;;5024238;28;19917;-77
2022/02/14 12:54:07;;;;;;;;;;;;;;;;;;5042710;28;19953;-77
2022/02/14 12:56:33;;;;;;;;;;;;;;;;;;5044715;28;20391;-77
2022/02/14 12:59:00;;;;;;;;;;;;;;;;;;5045478;28;20416;-78
2022/02/14 13:01:27;;;;;;;;;;;;;;;;;;5048051;28;19955;-77
2022/02/14 13:03:53;;;;;;;;;;;;;;;;;;5043951;28;20297;-77
2022/02/14 13:06:19;;;;;;;;;;;;;;;;;;5037622;28;19999;-77
2022/02/14 13:08:52;;;;;;;;;;;;;;;;;;5040296;28;19944;-77
2022/02/14 13:11:19;;;;;;;;;;;;;;;;;;5045961;28;19986;-77
2022/02/14 13:13:46;;;;;;;;;;;;;;;;;;5044294;28;19975;-77
2022/02/14 13:16:12;;;;;;;;;;;;;;;;;;5023345;28;19952;-77
2022/02/14 13:18:39;;;;;;;;;;;;;;;;;;5040850;28;19944;-77
2022/02/14 13:21:05;;;;;;;;;;;;;;;;;;5046596;28;20033;-76
2022/02/14 13:23:31;;;;;;;;;;;;;;;;;;5045508;28;20384;-77
2022/02/14 13:25:57;;;;;;;;;;;;;;;;;;5043308;28;19975;-78
2022/02/14 13:28:23;;;;;;;;;;;;;;;;;;5042173;28;20001;-76
2022/02/14 13:30:52;;;;;;;;;;;;;;;;;;5041141;28;19952;-77
2022/02/14 13:33:18;;;;;;;;;;;;;;;;;;5040859;28;19968;-76
2022/02/14 13:35:44;;;;;;;;;;;;;;;;;;5042736;28;19964;-75
2022/02/14 13:38:11;;;;;;;;;;;;;;;;;;5042183;28;19960;-76
2022/02/14 13:40:37;;;;;;;;;;;;;;;;;;5044838;28;19948;-76
2022/02/14 13:43:03;;;;;;;;;;;;;;;;;;5039062;28;19952;-75
2022/02/14 13:45:29;;;;;;;;;;;;;;;;;;5049587;28;20363;-75
2022/02/14 13:47:56;;;;;;;;;;;;;;;;;;5044027;28;19948;-74
2022/02/14 13:50:22;;;;;;;;;;;;;;;;;;5046853;28;19975;-74
2022/02/14 13:52:48;;;;;;;;;;;;;;;;;;5047653;28;19948;-75
2022/02/14 13:55:21;;;;;;;;;;;;;;;;;;5040815;28;19949;-75
2022/02/14 13:57:48;;;;;;;;;;;;;;;;;;5039226;28;20355;-75
2022/02/14 14:00:14;;;;;;;;;;;;;;;;;;5044072;28;20014;-77
2022/02/14 14:02:40;;;;;;;;;;;;;;;;;;5037713;28;19917;-76
2022/02/14 14:05:06;;;;;;;;;;;;;;;;;;5042190;28;19972;-76
2022/02/14 14:07:32;;;;;;;;;;;;;;;;;;5041616;28;20708;-76
2022/02/14 14:09:58;;;;;;;;;;;;;;;;;;5041299;28;19948;-76
2022/02/14 14:12:28;;;;;;;;;;;;;;;;;;5035367;28;19948;-76
2022/02/14 14:14:55;;;;;;;;;;;;;;;;;;5038360;28;19956;-76
2022/02/14 14:17:21;;;;;;;;;;;;;;;;;;5040642;28;20002;-76
2022/02/14 14:19:48;;;;;;;;;;;;;;;;;;5040453;28;19956;-76
2022/02/14 14:22:14;;;;;;;;;;;;;;;;;;5041915;28;19941;-76
2022/02/14 14:24:40;;;;;;;;;;;;;;;;;;5041858;28;19944;-76
2022/02/14 14:27:06;;;;;;;;;;;;;;;;;;5045636;28;19951;-76
2022/02/14 14:29:33;;;;;;;;;;;;;;;;;;5046590;28;20655;-77
2022/02/14 14:31:59;;;;;;;;;;;;;;;;;;5033304;28;19956;-74
2022/02/14 14:34:25;;;;;;;;;;;;;;;;;;5030087;28;19952;-77
2022/02/14 14:36:51;;;;;;;;;;;;;;;;;;5052803;28;19975;-77
2022/02/14 14:39:17;;;;;;;;;;;;;;;;;;5043200;28;19952;-76
2022/02/14 14:41:43;;;;;;;;;;;;;;;;;;5047348;28;19968;-77
2022/02/14 14:44:10;;;;;;;;;;;;;;;;;;5045208;28;19953;-76
2022/02/14 14:46:36;;;;;;;;;;;;;;;;;;5042718;28;19978;-78
2022/02/14 14:49:02;;;;;;;;;;;;;;;;;;5042644;28;19932;-77
2022/02/14 14:51:28;;;;;;;;;;;;;;;;;;5042638;28;20427;-77
2022/02/14 14:53:55;;;;;;;;;;;;;;;;;;5017288;28;19952;-75
2022/02/14 14:56:21;;;;;;;;;;;;;;;;;;5041270;28;19955;-77
2022/02/14 14:58:47;;;;;;;;;;;;;;;;;;5045045;28;20298;-77
2022/02/14 15:01:13;;;;;;;;;;;;;;;;;;5039799;28;19956;-76
2022/02/14 15:03:42;;;;;;;;;;;;;;;;;;5044344;28;19953;-77
2022/02/14 15:06:09;;;;;;;;;;;;;;;;;;5038714;28;19961;-76
2022/02/14 15:08:35;;;;;;;;;;;;;;;;;;5050104;28;19963;-76
2022/02/14 15:11:01;;;;;;;;;;;;;;;;;;5044869;28;20217;-76
2022/02/14 15:13:27;;;;;;;;;;;;;;;;;;5041389;28;19952;-77
2022/02/14 15:15:53;;;;;;;;;;;;;;;;;;5044157;28;19956;-76
2022/02/14 15:18:20;;;;;;;;;;;;;;;;;;5040461;28;19944;-76
2022/02/14 15:20:46;;;;;;;;;;;;;;;;;;5037797;28;19956;-76
2022/02/14 15:23:12;;;;;;;;;;;;;;;;;;5009732;28;19939;-76
2022/02/14 15:25:38;;;;;;;;;;;;;;;;;;5036650;28;19960;-75
2022/02/14 15:28:06;;;;;;;;;;;;;;;;;;5032905;28;20320;-74
2022/02/14 15:30:33;;;;;;;;;;;;;;;;;;5037828;28;20013;-75
2022/02/14 15:32:59;;;;;;;;;;;;;;;;;;5039720;28;20356;-75
2022/02/14 15:35:25;;;;;;;;;;;;;;;;;;5039872;28;19967;-74
2022/02/14 15:37:51;;;;;;;;;;;;;;;;;;5042704;28;20453;-74
2022/02/14 15:40:17;;;;;;;;;;;;;;;;;;5045458;28;19940;-74
2022/02/14 15:42:44;;;;;;;;;;;;;;;;;;5042811;28;19967;-74
2022/02/14 15:45:10;;;;;;;;;;;;;;;;;;5042663;28;19974;-73
2022/02/14 15:47:36;;;;;;;;;;;;;;;;;;5048571;28;20019;-74
2022/02/14 15:50:02;;;;;;;;;;;;;;;;;;5048421;28;19948;-74
2022/02/14 15:52:29;;;;;;;;;;;;;;;;;;5046300;28;19952;-74
2022/02/14 15:54:55;;;;;;;;;;;;;;;;;;5042186;28;19944;-75
2022/02/14 15:57:21;;;;;;;;;;;;;;;;;;5045336;28;19964;-74
2022/02/14 15:59:47;;;;;;;;;;;;;;;;;;5046696;28;20353;-74
2022/02/14 16:02:14;;;;;;;;;;;;;;;;;;5027206;28;20396;-73
2022/02/14 16:04:43;;;;;;;;;;;;;;;;;;5045548;28;20338;-74
2022/02/14 16:07:12;;;;;;;;;;;;;;;;;;5044406;28;19963;-74
2022/02/14 16:09:38;;;;;;;;;;;;;;;;;;5045775;28;19949;-74
2022/02/14 16:12:04;;;;;;;;;;;;;;;;;;5044645;28;19965;-74
2022/02/14 16:14:31;;;;;;;;;;;;;;;;;;5044209;28;20407;-74
2022/02/14 16:16:57;;;;;;;;;;;;;;;;;;5042774;28;19948;-75
2022/02/14 16:19:23;;;;;;;;;;;;;;;;;;5042087;28;19967;-74
2022/02/14 16:21:49;;;;;;;;;;;;;;;;;;5047101;28;19970;-74
2022/02/14 16:24:18;;;;;;;;;;;;;;;;;;5027713;28;19953;-74
2022/02/14 16:26:44;;;;;;;;;;;;;;;;;;5026280;28;20377;-74
2022/02/14 16:29:11;;;;;;;;;;;;;;;;;;5046643;28;19967;-74
2022/02/14 16:31:37;;;;;;;;;;;;;;;;;;5041753;28;19952;-75
2022/02/14 16:34:04;;;;;;;;;;;;;;;;;;5036486;28;19971;-73
2022/02/14 16:36:30;;;;;;;;;;;;;;;;;;5036662;28;19966;-73
2022/02/14 16:38:56;;;;;;;;;;;;;;;;;;5043687;28;19982;-73
2022/02/14 16:41:23;;;;;;;;;;;;;;;;;;5043608;28;20278;-73
2022/02/14 16:43:49;;;;;;;;;;;;;;;;;;5038249;28;19964;-74
2022/02/14 16:46:16;;;;;;;;;;;;;;;;;;5041274;28;20393;-74